Terminal Aerodrome Forecast
Issued by NWS Jackson, MS

Home | Current Version | Previous Version | Text Only | Print | Product List | Glossary On
Versions: 1 2 3 4 5 6 7 8 9 10 11 12 13 14
000
FTUS44 KJAN 240500
TAFJAN
TAF
KJAN 240520Z 2406/2506 VRB03KT P6SM BKN250
     FM241000 00000KT 5SM BR FEW012 SCT100
     FM241330 32003KT P6SM SCT020 BKN050
     FM241800 34005KT P6SM VCTS SCT030 BKN050CB
     FM242200 01007KT P6SM FEW030 SCT050
     FM250100 02003KT P6SM SCT250=

USA.gov is the U.S. government's official web portal to all federal, state and local government web resources and services.